Etusivu
METAR-TAF:

METAR-TAF

Lentoasemat :

Jasperin piirikunta, Indiana, Yhdysvallat

Leveyspiiri: 40-56-52N, Pituuspiiri: 087-10-57W, korkeus merenpinnasta: 213 m

Tämänhetkinen sää

Tämä raportti tehtiin 22 minuuttia sitten, kello 07.15 UTC
tyyntä
Lämpötila 0°C
Kosteus 100%
Ilmanpaine 1021 hPa
Näkyvyys: 11.3 km
selkeää

METAR: KRZL 020715Z AUTO 00000KT 7SM CLR 00/00 A3014 RMK AO2

Aika: 03:37 (07:37 UTC)


TAF: puuttuu

Säähavainnot ja -ennusteet yli 4000 lentoasemalta (METAR- ja TAF-raportit).

Käytössä olevat sääasemat on merkitty karttaan keltaisilla ja punaisilla pisteillä.

Aseta hiiri pisteen päälle nähdäksesi sääaseman nimen.

Klikkaa sitten nähdäksesi säähavainnot ja -ennusteet.

Kartan vaihtaminen: klikkaa mustalla rastilla varustettuja vihreitä pisteitä, niin voit zoomata sisään; viivalla varustettua vihreää pistettä, niin voit zoomata ulos tai vihreitä nuolia, niin pääset viereisille kartoille.


METAR-TAF: